createdAt,value
2023-04-03T00:01:43.763Z,98447.06
2023-04-03T00:04:14.427Z,98448.69
2023-04-03T00:06:43.452Z,98439.28
2023-04-03T00:09:12.692Z,98441.41
2023-04-03T00:11:41.835Z,98444.13
2023-04-03T00:14:10.943Z,98445.00
2023-04-03T00:16:40.906Z,98441.84
2023-04-03T00:19:12.746Z,98449.06
2023-04-03T00:21:43.288Z,98446.84
2023-04-03T00:24:12.482Z,98449.88
2023-04-03T00:26:41.611Z,98446.47
2023-04-03T00:29:10.635Z,98441.41
2023-04-03T00:31:39.659Z,98447.81
2023-04-03T00:34:08.941Z,98444.50
2023-04-03T00:36:38.051Z,98446.03
2023-04-03T00:39:08.688Z,98438.13
2023-04-03T00:41:37.792Z,98436.75
2023-04-03T00:44:23.772Z,98441.66
2023-04-03T00:46:52.851Z,98439.91
2023-04-03T00:49:22.303Z,98438.56
2023-04-03T00:51:52.024Z,98438.28
2023-04-03T00:54:22.577Z,98437.44
2023-04-03T00:56:55.494Z,98439.63
2023-04-03T00:59:29.222Z,98438.75
2023-04-03T01:02:00.327Z,98441.09
2023-04-03T01:04:31.063Z,98440.19
2023-04-03T01:07:04.899Z,98440.66
2023-04-03T01:09:36.344Z,98447.47
2023-04-03T01:12:19.141Z,98442.78
2023-04-03T01:14:53.599Z,98440.38
2023-04-03T01:17:35.794Z,98447.38
2023-04-03T01:21:06.055Z,98445.38
2023-04-03T01:23:46.676Z,98447.09
2023-04-03T01:26:17.467Z,98452.81
2023-04-03T01:28:46.661Z,98457.34
2023-04-03T01:31:24.448Z,98456.56
2023-04-03T01:33:55.394Z,98450.56
2023-04-03T01:36:28.171Z,98459.44
2023-04-03T01:39:00.741Z,98453.28
2023-04-03T01:41:31.480Z,98451.53
2023-04-03T01:44:09.961Z,98457.97
2023-04-03T01:46:39.633Z,98451.25
2023-04-03T01:49:10.517Z,98454.97
2023-04-03T01:51:41.283Z,98452.22
2023-04-03T01:54:10.342Z,98453.38
2023-04-03T01:56:40.160Z,98442.22
2023-04-03T01:59:10.524Z,98447.78
2023-04-03T02:01:39.612Z,98451.03
2023-04-03T02:04:10.519Z,98455.00
2023-04-03T02:06:39.728Z,98454.38
2023-04-03T02:09:08.994Z,98451.72
2023-04-03T02:11:38.004Z,98446.63
2023-04-03T02:14:07.581Z,98456.97
2023-04-03T02:16:36.953Z,98454.59
2023-04-03T02:19:06.038Z,98454.19
2023-04-03T02:21:36.468Z,98442.03
2023-04-03T02:24:06.393Z,98447.19
2023-04-03T02:26:35.579Z,98435.00
2023-04-03T02:29:05.492Z,98446.94
2023-04-03T02:31:34.584Z,98442.53
2023-04-03T02:34:05.084Z,98442.97
2023-04-03T02:36:34.333Z,98438.03
2023-04-03T02:39:08.312Z,98441.56
2023-04-03T02:41:38.188Z,98445.44
2023-04-03T02:44:13.992Z,98446.25
2023-04-03T02:46:43.111Z,98445.94
2023-04-03T02:49:12.126Z,98438.84
2023-04-03T02:51:41.118Z,98442.72
2023-04-03T02:54:11.781Z,98435.13
2023-04-03T02:56:44.370Z,98445.06
2023-04-03T02:59:13.388Z,98448.59
2023-04-03T03:01:43.713Z,98447.13
2023-04-03T03:04:12.858Z,98441.13
2023-04-03T03:06:43.598Z,98446.75
2023-04-03T03:09:15.737Z,98449.16
2023-04-03T03:11:45.404Z,98451.63
2023-04-03T03:14:14.451Z,98446.06
2023-04-03T03:16:43.401Z,98446.50
2023-04-03T03:19:12.909Z,98443.84
2023-04-03T03:21:42.430Z,98436.00
2023-04-03T03:24:13.080Z,98441.88
2023-04-03T03:26:43.501Z,98446.28
2023-04-03T03:29:12.575Z,98439.47
2023-04-03T03:31:41.829Z,98444.47
2023-04-03T03:34:11.022Z,98448.69
2023-04-03T03:36:41.887Z,98441.56
2023-04-03T03:39:11.723Z,98445.53
2023-04-03T03:41:40.810Z,98453.44
2023-04-03T03:44:11.907Z,98453.88
2023-04-03T03:46:41.115Z,98451.97
2023-04-03T03:49:10.890Z,98450.47
2023-04-03T03:51:40.090Z,98444.22
2023-04-03T03:54:10.175Z,98440.81
2023-04-03T03:56:39.400Z,98436.09
2023-04-03T03:59:08.802Z,98435.00
2023-04-03T04:01:39.268Z,98443.38
2023-04-03T04:04:08.454Z,98443.31
2023-04-03T04:06:37.808Z,98432.47
2023-04-03T04:09:11.470Z,98432.78
2023-04-03T04:11:41.587Z,98439.09
2023-04-03T04:14:14.397Z,98435.88
2023-04-03T04:16:46.578Z,98442.19
2023-04-03T04:19:20.944Z,98440.13
2023-04-03T04:21:49.985Z,98434.25
2023-04-03T04:24:19.261Z,98447.13
2023-04-03T04:26:49.805Z,98442.38
2023-04-03T04:29:19.961Z,98442.50
2023-04-03T04:31:53.310Z,98455.59
2023-04-03T04:34:24.233Z,98443.78
2023-04-03T04:36:53.462Z,98448.19
2023-04-03T04:39:22.903Z,98449.03
2023-04-03T04:41:52.475Z,98454.50
2023-04-03T04:44:21.686Z,98448.19
2023-04-03T04:46:52.358Z,98442.72
2023-04-03T04:49:23.225Z,98443.47
2023-04-03T04:51:52.725Z,98441.59
2023-04-03T04:54:27.520Z,98441.34
2023-04-03T04:56:57.041Z,98448.47
2023-04-03T04:59:26.452Z,98448.06
2023-04-03T05:01:59.460Z,98444.94
2023-04-03T05:04:32.573Z,98451.47
2023-04-03T05:07:07.691Z,98453.53
2023-04-03T05:09:38.915Z,98449.56
2023-04-03T05:12:08.389Z,98444.16
2023-04-03T05:14:46.519Z,98447.41
2023-04-03T05:17:17.188Z,98454.75
2023-04-03T05:19:51.701Z,98452.97
2023-04-03T05:22:23.374Z,98452.59
2023-04-03T05:24:55.055Z,98458.47
2023-04-03T05:27:26.224Z,98460.78
2023-04-03T05:29:57.928Z,98455.66
2023-04-03T05:32:29.442Z,98462.09
2023-04-03T05:35:12.060Z,98465.78
2023-04-03T05:37:43.017Z,98471.31
2023-04-03T05:40:13.422Z,98469.19
2023-04-03T05:42:45.964Z,98466.19
2023-04-03T05:45:16.218Z,98467.00
2023-04-03T05:47:47.130Z,98478.31
2023-04-03T05:50:16.762Z,98475.50
2023-04-03T05:52:48.907Z,98478.97
2023-04-03T05:55:18.310Z,98482.94
2023-04-03T05:57:47.569Z,98486.97
2023-04-03T06:00:18.439Z,98486.06
2023-04-03T06:02:58.198Z,98484.94
2023-04-03T06:05:28.817Z,98491.75
2023-04-03T06:07:58.394Z,98493.47
2023-04-03T06:10:27.399Z,98485.50
2023-04-03T06:12:56.619Z,98490.34
2023-04-03T06:15:26.146Z,98497.28
2023-04-03T06:17:55.227Z,98499.81
2023-04-03T06:20:26.156Z,98507.56
2023-04-03T06:22:56.367Z,98500.81
2023-04-03T06:25:25.578Z,98509.53
2023-04-03T06:27:56.451Z,98497.09
2023-04-03T06:30:25.465Z,98505.13
2023-04-03T06:32:54.599Z,98490.81
2023-04-03T06:35:26.431Z,98500.00
2023-04-03T06:37:55.462Z,98498.22
2023-04-03T06:40:27.279Z,98503.91
2023-04-03T06:42:56.616Z,98507.56
2023-04-03T06:45:26.619Z,98511.63
2023-04-03T06:47:56.673Z,98508.50
2023-04-03T06:50:27.161Z,98510.13
2023-04-03T06:52:56.317Z,98503.88
2023-04-03T06:55:25.327Z,98513.00
2023-04-03T06:57:54.289Z,98515.38
2023-04-03T07:00:23.788Z,98529.31
2023-04-03T07:02:52.892Z,98530.06
2023-04-03T07:05:22.426Z,98520.66
2023-04-03T07:07:53.111Z,98527.91
2023-04-03T07:10:22.174Z,98524.38
2023-04-03T07:12:51.275Z,98525.09
2023-04-03T07:15:20.486Z,98539.25
2023-04-03T07:17:49.697Z,98531.78
2023-04-03T07:20:19.062Z,98533.94
2023-04-03T07:22:48.219Z,98540.41
2023-04-03T07:25:18.882Z,98547.69
2023-04-03T07:27:48.557Z,98546.03
2023-04-03T07:30:17.876Z,98541.28
2023-04-03T07:32:47.076Z,98542.88
2023-04-03T07:35:17.782Z,98533.59
2023-04-03T07:37:47.279Z,98536.09
2023-04-03T07:40:16.592Z,98536.13
2023-04-03T07:42:47.659Z,98552.22
2023-04-03T07:45:18.394Z,98552.44
2023-04-03T07:47:47.525Z,98558.84
2023-04-03T07:50:17.314Z,98556.50
2023-04-03T07:52:46.605Z,98558.50
2023-04-03T07:55:15.690Z,98556.47
2023-04-03T07:57:46.217Z,98550.06
2023-04-03T08:00:18.464Z,98538.50
2023-04-03T08:02:51.564Z,98549.72
2023-04-03T08:05:21.389Z,98557.31
2023-04-03T08:07:50.607Z,98568.13
2023-04-03T08:10:19.924Z,98557.34
2023-04-03T08:12:50.867Z,98553.31
2023-04-03T08:15:19.996Z,98556.91
2023-04-03T08:17:49.239Z,98564.47
2023-04-03T08:20:18.809Z,98558.06
2023-04-03T08:22:47.822Z,98553.28
2023-04-03T08:25:18.458Z,98548.50
2023-04-03T08:27:49.096Z,98560.88
2023-04-03T08:30:18.460Z,98557.31
2023-04-03T08:32:47.574Z,98559.69
2023-04-03T08:35:16.737Z,98566.00
2023-04-03T08:37:45.882Z,98571.13
2023-04-03T08:40:18.757Z,98568.41
2023-04-03T08:43:05.108Z,98565.69
2023-04-03T08:45:46.431Z,98566.94
2023-04-03T08:48:21.874Z,98554.88
2023-04-03T08:50:55.410Z,98560.50
2023-04-03T08:53:29.674Z,98558.09
2023-04-03T08:56:00.220Z,98563.72
2023-04-03T08:58:35.169Z,98581.38
2023-04-03T09:01:07.486Z,98582.94
2023-04-03T09:03:42.048Z,98578.94
2023-04-03T09:06:17.059Z,98574.94
2023-04-03T09:08:52.365Z,98583.75
2023-04-03T09:11:27.790Z,98576.56
2023-04-03T09:14:04.062Z,98586.13
2023-04-03T09:16:45.583Z,98597.41
2023-04-03T09:19:24.340Z,98586.13
2023-04-03T09:21:53.477Z,98594.91
2023-04-03T09:24:26.126Z,98590.97
2023-04-03T09:27:01.607Z,98585.31
2023-04-03T09:29:32.598Z,98605.41
2023-04-03T09:32:04.644Z,98604.59
2023-04-03T09:34:38.012Z,98612.44
2023-04-03T09:37:08.167Z,98612.19
2023-04-03T09:39:54.600Z,98608.50
2023-04-03T09:42:26.224Z,98602.06
2023-04-03T09:44:59.785Z,98602.81
2023-04-03T09:47:32.069Z,98600.81
2023-04-03T09:50:22.343Z,98594.13
2023-04-03T09:52:53.774Z,98582.94
2023-04-03T09:55:28.225Z,98569.00
2023-04-03T09:57:59.219Z,98577.81
2023-04-03T10:00:35.170Z,98589.22
2023-04-03T10:03:06.220Z,98596.91
2023-04-03T10:05:38.683Z,98603.81
2023-04-03T10:08:21.739Z,98599.78
2023-04-03T10:11:10.878Z,98591.78
2023-04-03T10:13:54.091Z,98599.59
2023-04-03T10:16:31.041Z,98593.22
2023-04-03T10:19:32.182Z,98601.56
2023-04-03T10:22:06.202Z,98598.41
2023-04-03T10:24:46.871Z,98596.25
2023-04-03T10:27:24.015Z,98591.88
2023-04-03T10:30:02.122Z,98586.38
2023-04-03T10:32:54.437Z,98585.22
2023-04-03T10:35:42.411Z,98581.50
2023-04-03T10:38:21.432Z,98590.38
2023-04-03T10:40:59.996Z,98578.19
2023-04-03T10:43:38.660Z,98581.81
2023-04-03T10:46:17.698Z,98579.53
2023-04-03T10:49:01.700Z,98570.72
2023-04-03T10:51:39.881Z,98566.44
2023-04-03T10:54:15.248Z,98564.50
2023-04-03T10:56:55.347Z,98567.63
2023-04-03T10:59:35.438Z,98568.41
2023-04-03T11:02:16.399Z,98564.59
2023-04-03T11:04:51.618Z,98548.75
2023-04-03T11:07:24.668Z,98545.38
2023-04-03T11:10:00.409Z,98546.75
2023-04-03T11:12:43.186Z,98545.56
2023-04-03T11:15:17.712Z,98542.81
2023-04-03T11:17:54.299Z,98549.41
2023-04-03T11:20:34.031Z,98548.03
2023-04-03T11:23:08.170Z,98540.28
2023-04-03T11:25:41.891Z,98539.00
2023-04-03T11:28:16.162Z,98534.84
2023-04-03T11:30:53.668Z,98539.06
2023-04-03T11:33:39.314Z,98530.31
2023-04-03T11:36:26.271Z,98541.75
2023-04-03T11:39:03.387Z,98528.38
2023-04-03T11:41:34.034Z,98521.22
2023-04-03T11:44:06.990Z,98523.88
2023-04-03T11:46:57.185Z,98519.47
2023-04-03T11:50:01.652Z,98522.13
2023-04-03T11:53:02.546Z,98537.97
2023-04-03T11:56:03.110Z,98524.13
2023-04-03T11:58:35.135Z,98535.19
2023-04-03T12:01:10.274Z,98523.91
2023-04-03T12:04:10.427Z,98528.25
2023-04-03T12:07:17.005Z,98522.41
2023-04-03T12:10:31.106Z,98512.88
2023-04-03T12:13:05.112Z,98509.25
2023-04-03T12:16:00.949Z,98508.88
2023-04-03T12:19:03.750Z,98512.06
2023-04-03T12:22:20.325Z,98515.63
2023-04-03T12:24:52.723Z,98517.22
2023-04-03T12:27:36.576Z,98513.97
2023-04-03T12:30:21.147Z,98510.81
2023-04-03T12:33:13.135Z,98511.03
2023-04-03T12:35:51.925Z,98508.13
2023-04-03T12:38:43.441Z,98517.91
2023-04-03T12:41:27.092Z,98506.16
2023-04-03T12:44:24.719Z,98504.78
2023-04-03T12:46:55.630Z,98504.66
2023-04-03T12:49:39.275Z,98507.34
2023-04-03T12:52:23.208Z,98501.59
2023-04-03T12:54:53.649Z,98508.16
2023-04-03T12:57:27.606Z,98507.13
2023-04-03T12:59:58.599Z,98512.97
2023-04-03T13:02:30.411Z,98499.59
2023-04-03T13:05:06.808Z,98500.19
2023-04-03T13:07:39.811Z,98496.53
2023-04-03T13:10:19.356Z,98498.28
2023-04-03T13:12:51.846Z,98484.41
2023-04-03T13:15:30.439Z,98476.84
2023-04-03T13:18:00.155Z,98469.97
2023-04-03T13:20:31.918Z,98479.13
2023-04-03T13:23:05.476Z,98482.34
2023-04-03T13:25:37.554Z,98482.00
2023-04-03T13:28:14.027Z,98476.59
2023-04-03T13:31:02.799Z,98487.31
2023-04-03T13:33:38.685Z,98487.28
2023-04-03T13:36:18.011Z,98487.72
2023-04-03T13:38:47.194Z,98479.44
2023-04-03T13:41:31.230Z,98472.91
2023-04-03T13:44:18.882Z,98474.09
2023-04-03T13:46:50.570Z,98465.81
2023-04-03T13:49:23.276Z,98474.44
2023-04-03T13:52:04.221Z,98476.00
2023-04-03T13:54:39.840Z,98479.63
2023-04-03T13:57:17.314Z,98466.72
2023-04-03T13:59:46.331Z,98461.47
2023-04-03T14:02:22.763Z,98470.06
2023-04-03T14:04:59.414Z,98457.66
2023-04-03T14:07:29.414Z,98459.97
2023-04-03T14:09:58.571Z,98441.63
2023-04-03T14:12:34.082Z,98463.09
2023-04-03T14:15:05.952Z,98468.13
2023-04-03T14:17:37.023Z,98464.91
2023-04-03T14:20:08.436Z,98469.94
2023-04-03T14:22:37.514Z,98464.88
2023-04-03T14:25:07.822Z,98470.78
2023-04-03T14:27:39.975Z,98462.25
2023-04-03T14:30:16.608Z,98463.34
2023-04-03T14:32:48.290Z,98466.59
2023-04-03T14:35:19.730Z,98460.50
2023-04-03T14:37:50.101Z,98454.63
2023-04-03T14:40:23.301Z,98454.53
2023-04-03T14:42:52.567Z,98454.38
2023-04-03T14:45:21.699Z,98454.50
2023-04-03T14:47:55.801Z,98458.47
2023-04-03T14:50:28.043Z,98461.41
2023-04-03T14:53:00.718Z,98470.38
2023-04-03T14:55:30.149Z,98450.91
2023-04-03T14:57:59.162Z,98462.78
2023-04-03T15:00:28.285Z,98459.75
2023-04-03T15:02:58.876Z,98455.75
2023-04-03T15:05:28.230Z,98449.72
2023-04-03T15:08:01.485Z,98460.75
2023-04-03T15:10:32.736Z,98449.25
2023-04-03T15:13:01.879Z,98432.31
2023-04-03T15:15:32.183Z,98442.25
2023-04-03T15:18:02.727Z,98446.81
2023-04-03T15:20:34.241Z,98447.56
2023-04-03T15:23:03.559Z,98464.34
2023-04-03T15:25:33.439Z,98459.97
2023-04-03T15:28:02.733Z,98459.97
2023-04-03T15:30:32.102Z,98453.97
2023-04-03T15:33:02.535Z,98453.16
2023-04-03T15:35:31.705Z,98456.59
2023-04-03T15:38:01.346Z,98473.31
2023-04-03T15:40:30.609Z,98474.16
2023-04-03T15:42:59.597Z,98477.03
2023-04-03T15:45:32.198Z,98480.03
2023-04-03T15:48:03.300Z,98487.06
2023-04-03T15:50:32.954Z,98491.16
2023-04-03T15:53:02.746Z,98488.41
2023-04-03T15:55:34.150Z,98485.59
2023-04-03T15:58:03.882Z,98498.91
2023-04-03T16:00:33.843Z,98502.91
2023-04-03T16:03:10.639Z,98506.94
2023-04-03T16:05:41.274Z,98517.94
2023-04-03T16:08:11.204Z,98526.44
2023-04-03T16:10:41.556Z,98520.50
2023-04-03T16:13:10.769Z,98526.19
2023-04-03T16:15:40.202Z,98508.72
2023-04-03T16:18:11.436Z,98508.00
2023-04-03T16:20:41.081Z,98501.88
2023-04-03T16:23:10.483Z,98498.97
2023-04-03T16:25:39.832Z,98487.31
2023-04-03T16:28:09.130Z,98499.19
2023-04-03T16:30:38.382Z,98506.81
2023-04-03T16:33:08.127Z,98507.03
2023-04-03T16:35:39.170Z,98516.00
2023-04-03T16:38:08.633Z,98511.19
2023-04-03T16:40:37.872Z,98518.22
2023-04-03T16:43:07.037Z,98522.47
2023-04-03T16:45:36.345Z,98520.00
2023-04-03T16:48:06.395Z,98516.28
2023-04-03T16:50:36.017Z,98539.34
2023-04-03T16:53:09.312Z,98532.88
2023-04-03T16:55:40.555Z,98534.50
2023-04-03T16:58:11.140Z,98527.41
2023-04-03T17:00:40.283Z,98522.81
2023-04-03T17:03:09.489Z,98522.72
2023-04-03T17:05:40.787Z,98520.41
2023-04-03T17:08:11.273Z,98518.06
2023-04-03T17:10:40.427Z,98527.16
2023-04-03T17:13:09.716Z,98519.50
2023-04-03T17:15:39.344Z,98531.13
2023-04-03T17:18:09.817Z,98520.06
2023-04-03T17:20:39.484Z,98535.53
2023-04-03T17:23:10.215Z,98535.47
2023-04-03T17:25:39.644Z,98536.72
2023-04-03T17:28:08.950Z,98536.44
2023-04-03T17:30:37.967Z,98550.13
2023-04-03T17:33:07.042Z,98537.31
2023-04-03T17:35:36.203Z,98555.63
2023-04-03T17:38:05.496Z,98555.91
2023-04-03T17:40:35.893Z,98571.84
2023-04-03T17:43:07.550Z,98576.16
2023-04-03T17:45:36.580Z,98577.03
2023-04-03T17:48:06.500Z,98578.81
2023-04-03T17:50:35.821Z,98583.75
2023-04-03T17:53:04.989Z,98601.03
2023-04-03T17:55:35.842Z,98602.22
2023-04-03T17:58:04.982Z,98617.97
2023-04-03T18:00:34.188Z,98617.50
2023-04-03T18:03:03.729Z,98636.00
2023-04-03T18:05:33.246Z,98628.53
2023-04-03T18:08:02.991Z,98632.28
2023-04-03T18:10:32.499Z,98641.03
2023-04-03T18:13:02.934Z,98638.44
2023-04-03T18:15:32.641Z,98646.91
2023-04-03T18:18:01.988Z,98644.16
2023-04-03T18:20:31.039Z,98648.56
2023-04-03T18:23:01.031Z,98659.81
2023-04-03T18:25:30.206Z,98660.34
2023-04-03T18:28:00.244Z,98658.38
2023-04-03T18:30:30.814Z,98666.34
2023-04-03T18:32:59.964Z,98679.41
2023-04-03T18:35:29.196Z,98677.34
2023-04-03T18:37:58.191Z,98681.28
2023-04-03T18:40:27.706Z,98685.59
2023-04-03T18:42:56.948Z,98688.72
2023-04-03T18:45:26.086Z,98687.44
2023-04-03T18:47:56.925Z,98705.56
2023-04-03T18:50:26.500Z,98710.59
2023-04-03T18:52:55.808Z,98713.31
2023-04-03T18:55:25.144Z,98720.34
2023-04-03T18:57:54.355Z,98729.97
2023-04-03T19:00:23.628Z,98726.63
2023-04-03T19:02:53.119Z,98732.69
2023-04-03T19:05:23.948Z,98734.56
2023-04-03T19:07:55.187Z,98736.53
2023-04-03T19:10:24.330Z,98743.97
2023-04-03T19:12:53.676Z,98745.31
2023-04-03T19:15:25.546Z,98743.59
2023-04-03T19:17:55.769Z,98738.16
2023-04-03T19:20:26.686Z,98737.19
2023-04-03T19:22:56.130Z,98742.16
2023-04-03T19:25:25.379Z,98749.81
2023-04-03T19:27:54.571Z,98739.22
2023-04-03T19:30:24.853Z,98747.19
2023-04-03T19:32:57.219Z,98749.53
2023-04-03T19:35:29.166Z,98743.84
2023-04-03T19:37:58.575Z,98752.56
2023-04-03T19:40:32.320Z,98758.69
2023-04-03T19:43:01.458Z,98755.56
2023-04-03T19:45:30.530Z,98759.44
2023-04-03T19:48:07.181Z,98765.50
2023-04-03T19:50:37.850Z,98763.59
2023-04-03T19:53:08.762Z,98759.28
2023-04-03T19:55:38.697Z,98761.75
2023-04-03T19:58:08.035Z,98754.38
2023-04-03T20:00:37.098Z,98759.09
2023-04-03T20:03:06.419Z,98760.19
2023-04-03T20:05:35.543Z,98756.31
2023-04-03T20:08:06.134Z,98768.00
2023-04-03T20:10:35.563Z,98757.56
2023-04-03T20:13:08.589Z,98771.16
2023-04-03T20:15:41.071Z,98750.44
2023-04-03T20:18:12.551Z,98758.13
2023-04-03T20:20:42.624Z,98759.81
2023-04-03T20:23:13.933Z,98758.19
2023-04-03T20:25:51.017Z,98754.88
2023-04-03T20:28:28.091Z,98760.59
2023-04-03T20:30:57.961Z,98737.94
2023-04-03T20:33:28.294Z,98737.03
2023-04-03T20:35:58.853Z,98745.22
2023-04-03T20:38:29.343Z,98738.34
2023-04-03T20:40:58.424Z,98736.72
2023-04-03T20:43:28.299Z,98740.88
2023-04-03T20:46:00.436Z,98731.13
2023-04-03T20:48:31.215Z,98739.56
2023-04-03T20:51:00.485Z,98729.25
2023-04-03T20:53:30.882Z,98726.13
2023-04-03T20:56:01.793Z,98728.66
2023-04-03T20:58:33.185Z,98725.81
2023-04-03T21:01:02.641Z,98712.81
2023-04-03T21:03:32.228Z,98714.31
2023-04-03T21:06:00.975Z,98718.94
2023-04-03T21:09:28.499Z,98717.69
2023-04-03T21:12:53.487Z,98716.75
2023-04-03T21:16:00.066Z,98710.72
2023-04-03T21:18:55.214Z,98707.78
2023-04-03T21:21:26.287Z,98707.25
2023-04-03T21:23:56.862Z,98697.56
2023-04-03T21:26:28.277Z,98704.38
2023-04-03T21:28:57.696Z,98697.81
2023-04-03T21:31:52.748Z,98704.25
2023-04-03T21:34:25.920Z,98700.78
2023-04-03T21:36:55.680Z,98695.03
2023-04-03T21:39:24.716Z,98691.81
2023-04-03T21:41:54.030Z,98679.09
2023-04-03T21:44:23.376Z,98685.38
2023-04-03T21:46:54.431Z,98674.97
2023-04-03T21:49:27.128Z,98678.78
2023-04-03T21:51:56.640Z,98674.47
2023-04-03T21:54:26.241Z,98679.72
2023-04-03T21:56:55.285Z,98688.31
2023-04-03T21:59:24.430Z,98678.28
2023-04-03T22:01:53.633Z,98673.94
2023-04-03T22:04:24.062Z,98683.03
2023-04-03T22:06:53.477Z,98674.50
2023-04-03T22:09:22.505Z,98676.44
2023-04-03T22:11:51.645Z,98676.16
2023-04-03T22:14:21.118Z,98671.31
2023-04-03T22:16:50.918Z,98653.44
2023-04-03T22:19:19.960Z,98655.59
2023-04-03T22:21:51.462Z,98650.78
2023-04-03T22:24:20.637Z,98652.81
2023-04-03T22:26:49.747Z,98655.28
2023-04-03T22:29:19.212Z,98650.03
2023-04-03T22:31:51.289Z,98666.69
2023-04-03T22:34:20.934Z,98652.81
2023-04-03T22:36:51.252Z,98654.13
2023-04-03T22:39:20.407Z,98654.78
2023-04-03T22:41:49.407Z,98657.97
2023-04-03T22:44:18.837Z,98660.31
2023-04-03T22:46:47.955Z,98642.28
2023-04-03T22:49:17.181Z,98650.38
2023-04-03T22:51:46.725Z,98653.59
2023-04-03T22:54:17.147Z,98655.53
2023-04-03T22:56:46.501Z,98644.13
2023-04-03T22:59:15.555Z,98650.94
2023-04-03T23:01:44.560Z,98644.59
2023-04-03T23:04:13.572Z,98645.50
2023-04-03T23:06:42.701Z,98646.44
2023-04-03T23:09:11.748Z,98642.28
2023-04-03T23:11:42.885Z,98640.91
2023-04-03T23:14:11.956Z,98644.16
2023-04-03T23:16:42.156Z,98649.00
2023-04-03T23:19:11.309Z,98649.25
2023-04-03T23:21:40.458Z,98649.44
2023-04-03T23:24:09.615Z,98647.38
2023-04-03T23:26:38.617Z,98644.38
2023-04-03T23:29:09.053Z,98643.44
2023-04-03T23:31:38.217Z,98646.44
2023-04-03T23:34:07.458Z,98641.59
2023-04-03T23:36:36.529Z,98644.84
2023-04-03T23:39:05.970Z,98648.06
2023-04-03T23:41:35.007Z,98645.44
2023-04-03T23:44:04.456Z,98649.22
2023-04-03T23:46:35.018Z,98643.00
2023-04-03T23:49:04.160Z,98635.38
2023-04-03T23:51:33.209Z,98636.75
2023-04-03T23:54:02.371Z,98641.56
2023-04-03T23:56:32.269Z,98641.34
2023-04-03T23:59:01.318Z,98648.31
